Time;durP1;ratioP1;P1;durP2;ratioP2;P2;SDS_P1;SDS_P2;PMS_P1;PMS_P2;Temp;Humidity;BMP_temperature;BMP_pressure;BME280_temperature;BME280_humidity;BME280_pressure;Samples;Min_cycle;Max_cycle;Signal;HPM_P1;HPM_P2
2023/10/01 00:00:15;;;;;;;13.70;4.40;;;15.60;99.90;;;;;;5073358;28;20157;-67
2023/10/01 00:02:41;;;;;;;12.90;4.27;;;15.60;99.90;;;;;;5073958;28;20131;-67
2023/10/01 00:05:09;;;;;;;14.90;4.40;;;15.60;99.90;;;;;;5073972;28;20158;-67
2023/10/01 00:07:37;;;;;;;12.63;4.03;;;15.60;99.90;;;;;;5073708;28;20531;-67
2023/10/01 00:10:09;;;;;;;19.93;5.13;;;15.60;99.90;;;;;;5074367;28;20445;-67
2023/10/01 00:12:36;;;;;;;18.47;5.07;;;15.60;99.90;;;;;;5074499;28;20051;-67
2023/10/01 00:15:02;;;;;;;17.63;4.77;;;15.60;99.90;;;;;;5073679;28;20045;-68
2023/10/01 00:17:28;;;;;;;15.80;4.93;;;15.60;99.90;;;;;;5072562;28;20508;-67
2023/10/01 00:19:54;;;;;;;13.37;5.23;;;15.60;99.90;;;;;;5073756;28;20127;-67
2023/10/01 00:22:19;;;;;;;15.67;4.80;;;15.60;99.90;;;;;;5073511;28;20041;-67
2023/10/01 00:24:45;;;;;;;11.13;4.30;;;15.60;99.90;;;;;;5073680;28;20044;-67
2023/10/01 00:27:11;;;;;;;16.37;5.40;;;15.60;99.90;;;;;;5073635;28;20063;-67
2023/10/01 00:29:37;;;;;;;17.30;5.53;;;15.60;99.90;;;;;;5073645;28;20087;-67
2023/10/01 00:32:03;;;;;;;14.07;5.03;;;15.60;99.90;;;;;;5072603;28;20056;-67
2023/10/01 00:34:28;;;;;;;14.10;5.07;;;15.60;99.90;;;;;;5073789;28;20044;-67
2023/10/01 00:36:54;;;;;;;17.60;6.03;;;15.60;99.90;;;;;;5073509;28;20143;-67
2023/10/01 00:39:20;;;;;;;16.33;6.27;;;15.60;99.90;;;;;;5074036;28;20079;-67
2023/10/01 00:41:46;;;;;;;12.73;5.27;;;15.60;99.90;;;;;;5073570;28;20148;-67
2023/10/01 00:44:13;;;;;;;15.20;6.20;;;15.60;99.90;;;;;;5072553;28;20489;-67
2023/10/01 00:46:39;;;;;;;14.97;5.83;;;15.60;99.90;;;;;;5074070;28;20045;-67
2023/10/01 00:49:06;;;;;;;16.67;7.07;;;15.60;99.90;;;;;;5073474;28;20048;-67
2023/10/01 00:51:33;;;;;;;15.20;5.77;;;15.60;99.90;;;;;;5073450;28;20131;-67
2023/10/01 00:54:02;;;;;;;13.57;5.60;;;15.60;99.90;;;;;;5073499;28;20044;-67
2023/10/01 00:56:28;;;;;;;18.90;6.20;;;15.60;99.90;;;;;;5073297;28;20080;-67
2023/10/01 00:58:53;;;;;;;18.33;6.37;;;15.60;99.90;;;;;;5073416;28;20470;-67
2023/10/01 01:01:23;;;;;;;15.43;6.90;;;15.60;99.90;;;;;;5072358;28;20088;-67
2023/10/01 01:03:52;;;;;;;18.03;6.77;;;15.60;99.90;;;;;;5073366;28;20128;-67
2023/10/01 01:06:25;;;;;;;16.70;6.40;;;15.60;99.90;;;;;;5073270;28;20044;-67
2023/10/01 01:08:54;;;;;;;17.97;7.00;;;15.60;99.90;;;;;;5073351;28;20045;-67
2023/10/01 01:11:21;;;;;;;17.90;6.07;;;15.60;99.90;;;;;;5075712;28;20548;-67
2023/10/01 01:13:51;;;;;;;20.30;6.60;;;15.50;99.90;;;;;;5077310;28;20052;-67
2023/10/01 01:16:19;;;;;;;20.77;7.03;;;15.60;99.90;;;;;;5075961;28;20047;-67
2023/10/01 01:18:47;;;;;;;16.37;6.63;;;15.60;99.90;;;;;;5076713;28;20443;-67
2023/10/01 01:21:13;;;;;;;20.57;7.20;;;15.60;99.90;;;;;;5077868;28;20087;-67
2023/10/01 01:23:45;;;;;;;16.37;6.83;;;15.60;99.90;;;;;;5077071;28;20084;-67
2023/10/01 01:26:13;;;;;;;20.77;7.13;;;15.60;99.90;;;;;;5077813;28;20385;-67
2023/10/01 01:28:41;;;;;;;19.93;6.70;;;15.60;99.90;;;;;;5076939;28;20477;-67
2023/10/01 01:31:08;;;;;;;20.00;7.07;;;15.50;99.90;;;;;;5077679;28;20147;-67
2023/10/01 01:33:40;;;;;;;18.03;6.60;;;15.60;99.90;;;;;;5076539;28;20488;-67
2023/10/01 01:36:10;;;;;;;21.47;6.27;;;15.60;99.90;;;;;;5077002;28;20532;-67
2023/10/01 01:38:38;;;;;;;18.10;6.47;;;15.60;99.90;;;;;;5076707;28;20044;-67
2023/10/01 01:41:06;;;;;;;16.27;6.23;;;15.60;99.90;;;;;;5077214;28;20053;-67
2023/10/01 01:43:32;;;;;;;17.13;6.67;;;15.60;99.90;;;;;;5076581;28;20093;-67
2023/10/01 01:46:08;;;;;;;13.97;6.40;;;15.60;99.90;;;;;;5077461;28;20075;-67
2023/10/01 01:48:37;;;;;;;15.97;6.37;;;15.60;99.90;;;;;;5076974;28;20579;-67
2023/10/01 01:51:04;;;;;;;15.43;6.63;;;15.50;99.90;;;;;;5076516;28;20055;-67
2023/10/01 01:53:34;;;;;;;15.70;6.37;;;15.50;99.90;;;;;;5076491;28;20148;-67
2023/10/01 01:56:04;;;;;;;19.00;8.60;;;15.60;99.90;;;;;;5076936;28;20044;-67
2023/10/01 01:58:32;;;;;;;22.47;7.10;;;15.60;99.90;;;;;;5076376;28;20131;-67
2023/10/01 02:01:08;;;;;;;16.23;6.50;;;15.60;99.90;;;;;;5076604;28;20052;-67
2023/10/01 02:03:46;;;;;;;14.97;7.37;;;15.50;99.90;;;;;;5076363;28;20052;-67
2023/10/01 02:06:13;;;;;;;15.03;7.37;;;15.50;99.90;;;;;;5076343;28;20040;-67
2023/10/01 02:08:53;;;;;;;22.97;8.20;;;15.50;99.90;;;;;;5076154;28;20044;-67
2023/10/01 02:11:20;;;;;;;20.70;7.47;;;15.50;99.90;;;;;;5092965;28;20485;-67
2023/10/01 02:13:51;;;;;;;18.97;7.80;;;15.50;99.90;;;;;;5076104;28;20045;-67
2023/10/01 02:16:30;;;;;;;18.80;8.23;;;15.50;99.90;;;;;;5075657;28;20040;-67
2023/10/01 02:19:11;;;;;;;17.03;7.83;;;15.50;99.90;;;;;;5075601;28;20515;-67
2023/10/01 02:21:47;;;;;;;19.93;10.07;;;15.50;99.90;;;;;;5076120;28;20127;-67
2023/10/01 02:25:04;;;;;;;22.03;9.23;;;15.50;99.90;;;;;;5076700;28;20045;-67
2023/10/01 02:27:04;;;;;;;17.33;8.33;;;15.50;99.90;;;;;;5075019;28;20059;-67
2023/10/01 02:29:45;;;;;;;20.43;9.23;;;15.40;99.90;;;;;;5075826;28;20044;-67
2023/10/01 02:32:14;;;;;;;19.13;10.17;;;15.50;99.90;;;;;;5076398;28;20123;-67
2023/10/01 02:34:42;;;;;;;19.90;8.60;;;15.50;99.90;;;;;;5075503;28;20040;-67
2023/10/01 02:37:09;;;;;;;19.30;9.63;;;15.40;99.90;;;;;;5075424;28;20539;-67
2023/10/01 02:39:37;;;;;;;19.20;9.73;;;15.40;99.90;;;;;;5075598;28;20076;-67
2023/10/01 02:44:31;;;;;;;18.30;9.37;;;15.40;99.90;;;;;;5075553;28;20052;-67
2023/10/01 02:47:03;;;;;;;20.00;10.37;;;15.40;99.90;;;;;;5075563;28;20087;-67
2023/10/01 02:49:32;;;;;;;15.60;9.57;;;15.40;99.90;;;;;;5076038;28;20041;-67
2023/10/01 02:51:59;;;;;;;21.87;9.73;;;15.40;99.90;;;;;;5075507;28;20177;-67
2023/10/01 02:54:28;;;;;;;18.27;9.30;;;15.40;99.90;;;;;;5075386;28;20202;-67
2023/10/01 02:57:12;;;;;;;18.87;9.77;;;15.40;99.90;;;;;;5074272;28;20454;-67
2023/10/01 03:02:25;;;;;;;19.17;9.43;;;15.50;99.90;;;;;;5075256;28;20056;-67
2023/10/01 03:04:51;;;;;;;19.77;9.27;;;15.50;99.90;;;;;;5075167;28;20045;-67
2023/10/01 03:07:17;;;;;;;21.17;9.77;;;15.40;99.90;;;;;;5074486;28;20053;-67
2023/10/01 03:09:44;;;;;;;17.50;9.47;;;15.40;99.90;;;;;;5075033;28;20055;-67
2023/10/01 03:12:28;;;;;;;17.47;10.10;;;15.40;99.90;;;;;;5075018;28;20036;-67
2023/10/01 03:15:00;;;;;;;20.42;9.55;;;15.40;99.90;;;;;;5075797;28;20064;-67
2023/10/01 03:17:34;;;;;;;17.17;9.40;;;15.40;99.90;;;;;;5075282;28;20405;-68
2023/10/01 03:20:12;;;;;;;16.43;9.70;;;15.40;99.90;;;;;;5075215;28;20052;-67
2023/10/01 03:22:39;;;;;;;21.33;9.57;;;15.40;99.90;;;;;;5075308;28;20053;-67
2023/10/01 03:25:28;;;;;;;17.57;9.77;;;15.40;99.90;;;;;;5074699;28;20048;-67
2023/10/01 03:27:51;;;;;;;20.77;9.33;;;15.40;99.90;;;;;;5075420;28;20111;-67
2023/10/01 03:30:21;;;;;;;15.80;9.30;;;15.50;99.90;;;;;;5074639;28;20048;-67
2023/10/01 03:32:47;;;;;;;17.93;9.73;;;15.50;99.90;;;;;;5074832;28;20056;-67
2023/10/01 03:35:13;;;;;;;22.70;9.73;;;15.50;99.90;;;;;;5073505;28;20374;-67
2023/10/01 03:37:39;;;;;;;17.40;8.80;;;15.50;99.90;;;;;;5074523;28;20079;-67
2023/10/01 03:40:21;;;;;;;18.27;8.67;;;15.50;99.90;;;;;;5074469;28;20555;-67
2023/10/01 03:42:53;;;;;;;18.30;9.40;;;15.50;99.90;;;;;;5074731;28;20048;-67
2023/10/01 03:45:38;;;;;;;17.77;9.20;;;15.50;99.90;;;;;;5074999;28;20045;-67
2023/10/01 03:48:06;;;;;;;16.23;8.90;;;15.50;99.90;;;;;;5075203;28;20186;-67
2023/10/01 03:50:45;;;;;;;16.77;9.50;;;15.50;99.90;;;;;;5074794;28;20118;-67
2023/10/01 03:53:11;;;;;;;14.50;8.17;;;15.50;99.90;;;;;;5074264;28;20044;-67
2023/10/01 03:55:39;;;;;;;14.57;8.83;;;15.50;99.90;;;;;;5074038;28;20075;-67
2023/10/01 03:58:18;;;;;;;16.17;8.53;;;15.50;99.90;;;;;;5074098;28;20396;-67
2023/10/01 04:00:53;;;;;;;18.40;9.53;;;15.50;99.90;;;;;;5074118;28;20048;-67
2023/10/01 04:03:21;;;;;;;;;;;15.50;99.90;;;;;;5075011;28;20055;-67
2023/10/01 04:05:47;;;;;;;16.47;8.60;;;15.50;99.90;;;;;;5073958;28;19921;-67
2023/10/01 04:08:14;;;;;;;20.73;8.90;;;15.50;99.90;;;;;;5073962;28;20055;-67
2023/10/01 04:10:48;;;;;;;16.50;9.20;;;15.50;99.90;;;;;;5074136;28;20455;-67
2023/10/01 04:13:20;;;;;;;16.30;8.00;;;15.50;99.90;;;;;;5073917;28;20499;-67
2023/10/01 04:15:48;;;;;;;17.20;8.70;;;15.50;99.90;;;;;;5074051;28;20048;-67
2023/10/01 04:23:40;;;;;;;18.02;8.88;;;15.60;99.90;;;;;;5074607;28;20056;-67
2023/10/01 04:26:13;;;;;;;18.17;9.17;;;15.60;99.90;;;;;;5074040;28;20043;-67
2023/10/01 04:28:44;;;;;;;17.03;9.37;;;15.50;99.90;;;;;;5073894;28;20385;-67
2023/10/01 04:31:14;;;;;;;20.43;9.13;;;15.60;99.90;;;;;;5074089;28;20044;-67
2023/10/01 04:33:42;;;;;;;14.90;7.43;;;15.60;99.90;;;;;;5073606;28;20043;-67
2023/10/01 04:36:12;;;;;;;13.93;8.63;;;15.60;99.90;;;;;;5074036;28;20084;-67
2023/10/01 04:38:41;;;;;;;15.57;8.10;;;15.60;99.90;;;;;;5073600;28;20045;-66
2023/10/01 04:41:22;;;;;;;20.07;8.87;;;15.60;99.90;;;;;;5073517;28;20078;-67
2023/10/01 04:44:03;;;;;;;16.43;8.43;;;15.60;99.90;;;;;;5073240;28;20040;-67
2023/10/01 04:46:29;;;;;;;15.90;8.33;;;15.60;99.90;;;;;;5073748;28;20047;-67
2023/10/01 04:48:56;;;;;;;14.37;9.00;;;15.50;99.90;;;;;;5073412;28;20388;-67
2023/10/01 04:51:22;;;;;;;16.23;8.40;;;15.60;99.90;;;;;;5073430;28;20048;-67
2023/10/01 04:53:52;;;;;;;18.57;8.93;;;15.50;99.90;;;;;;5073388;28;20381;-67
2023/10/01 04:56:20;;;;;;;16.40;8.33;;;15.50;99.90;;;;;;5073280;28;20052;-67
2023/10/01 04:58:51;;;;;;;15.57;8.80;;;15.50;99.90;;;;;;5073319;28;20047;-67
2023/10/01 05:01:23;;;;;;;16.47;8.37;;;15.50;99.90;;;;;;5073900;28;20056;-67
2023/10/01 05:03:50;;;;;;;17.03;8.37;;;15.50;99.90;;;;;;5073320;28;20123;-67
2023/10/01 05:06:22;;;;;;;16.33;8.60;;;15.50;99.90;;;;;;5073268;28;20473;-67
2023/10/01 05:08:58;;;;;;;13.37;7.93;;;15.50;99.90;;;;;;5089396;28;20101;-67
2023/10/01 05:11:31;;;;;;;20.07;7.77;;;15.50;99.90;;;;;;5073802;28;20056;-67
2023/10/01 05:13:58;;;;;;;17.43;9.10;;;15.50;99.90;;;;;;5073091;28;20049;-67
2023/10/01 05:16:28;;;;;;;17.03;8.47;;;15.40;99.90;;;;;;5073673;28;20080;-67
2023/10/01 05:19:10;;;;;;;19.03;8.40;;;15.40;99.90;;;;;;5072689;28;20405;-67
2023/10/01 05:21:47;;;;;;;17.60;9.57;;;15.40;99.90;;;;;;5073381;28;20485;-67
2023/10/01 05:24:34;;;;;;;17.20;9.17;;;15.40;99.90;;;;;;5073711;28;20051;-67
2023/10/01 05:27:00;;;;;;;17.07;8.67;;;15.40;99.90;;;;;;5073125;28;20045;-67
2023/10/01 05:29:26;;;;;;;20.37;9.20;;;15.30;99.90;;;;;;5073097;28;20053;-67
2023/10/01 05:31:55;;;;;;;16.57;9.27;;;15.30;99.90;;;;;;5072963;28;20045;-67
2023/10/01 05:34:22;;;;;;;18.03;8.83;;;15.30;99.90;;;;;;5073045;28;20105;-67
2023/10/01 05:36:52;;;;;;;18.67;8.93;;;15.30;99.90;;;;;;5073169;28;20090;-67
2023/10/01 05:39:20;;;;;;;17.17;7.87;;;15.30;99.90;;;;;;5072960;28;20044;-67
2023/10/01 05:41:46;;;;;;;16.97;9.03;;;15.30;99.90;;;;;;5072907;28;20067;-67
2023/10/01 05:44:12;;;;;;;15.00;8.90;;;15.30;99.90;;;;;;5073738;28;20052;-67
2023/10/01 05:46:38;;;;;;;16.90;8.40;;;15.30;99.90;;;;;;5072876;28;20062;-67
2023/10/01 05:49:04;;;;;;;23.57;9.83;;;15.30;99.90;;;;;;5072487;28;20094;-67
2023/10/01 05:51:48;;;;;;;23.53;9.33;;;15.30;99.90;;;;;;5071669;28;20048;-67
2023/10/01 05:54:18;;;;;;;16.47;9.77;;;15.30;99.90;;;;;;5073693;28;20047;-67
2023/10/01 05:56:48;;;;;;;17.33;9.33;;;15.30;99.90;;;;;;5072396;28;20053;-67
2023/10/01 05:59:22;;;;;;;16.90;9.33;;;15.30;99.90;;;;;;5076344;28;20040;-67
2023/10/01 06:01:48;;;;;;;19.53;9.47;;;15.30;99.90;;;;;;5076311;28;20059;-67
2023/10/01 06:04:17;;;;;;;16.40;8.57;;;15.30;99.90;;;;;;5077072;28;20036;-67
2023/10/01 06:06:45;;;;;;;18.70;10.10;;;15.30;99.90;;;;;;5076241;28;20408;-67
2023/10/01 06:09:17;;;;;;;18.13;8.37;;;15.30;99.90;;;;;;5075179;28;20059;-67
2023/10/01 06:12:03;;;;;;;14.57;8.40;;;15.30;99.90;;;;;;5076056;28;20078;-67
2023/10/01 06:14:41;;;;;;;20.20;8.23;;;15.30;99.90;;;;;;5076296;28;20052;-67
2023/10/01 06:17:10;;;;;;;18.13;8.80;;;15.30;99.90;;;;;;5076194;28;20488;-67
2023/10/01 06:19:40;;;;;;;14.70;8.33;;;15.40;99.90;;;;;;5076346;28;20121;-67
2023/10/01 06:22:12;;;;;;;16.23;9.10;;;15.40;99.90;;;;;;5076514;28;20040;-67
2023/10/01 06:24:43;;;;;;;16.93;7.97;;;15.40;99.90;;;;;;5076495;28;20139;-67
2023/10/01 06:27:13;;;;;;;18.43;8.07;;;15.40;99.90;;;;;;5075910;28;20084;-66
2023/10/01 06:29:49;;;;;;;20.23;8.53;;;15.50;99.90;;;;;;5076210;28;20048;-66
2023/10/01 06:32:23;;;;;;;17.50;8.73;;;15.50;99.90;;;;;;5077082;28;20550;-67
2023/10/01 06:34:51;;;;;;;13.23;8.02;;;15.60;99.90;;;;;;5076562;28;20098;-67
2023/10/01 06:37:19;;;;;;;16.77;8.40;;;15.60;99.90;;;;;;5075622;28;20040;-67
2023/10/01 06:39:46;;;;;;;16.30;8.10;;;15.60;99.90;;;;;;5075984;28;20400;-66
2023/10/01 06:42:18;;;;;;;17.47;7.73;;;15.60;99.90;;;;;;5075273;28;20473;-66
2023/10/01 06:44:49;;;;;;;16.13;7.83;;;15.70;99.90;;;;;;5074765;28;20469;-66
2023/10/01 06:47:28;;;;;;;15.13;8.13;;;15.60;99.90;;;;;;5075555;28;20052;-67
2023/10/01 06:49:57;;;;;;;16.43;8.40;;;15.70;99.90;;;;;;5075062;28;20362;-68
2023/10/01 06:52:32;;;;;;;19.83;9.00;;;15.70;99.90;;;;;;5075389;28;20135;-67
2023/10/01 06:55:01;;;;;;;15.97;8.33;;;15.70;99.90;;;;;;5075253;28;20063;-67
2023/10/01 06:57:28;;;;;;;16.17;8.17;;;15.80;99.90;;;;;;5075356;28;20048;-67
2023/10/01 06:59:57;;;;;;;19.67;8.40;;;15.80;99.90;;;;;;5076007;28;20082;-67
2023/10/01 07:02:27;;;;;;;17.87;8.33;;;15.80;99.90;;;;;;5075730;28;20045;-67
2023/10/01 07:04:58;;;;;;;17.47;8.43;;;15.80;99.90;;;;;;5074002;28;20061;-66
2023/10/01 07:07:31;;;;;;;18.10;7.70;;;15.80;99.90;;;;;;5075205;28;20052;-67
2023/10/01 07:09:57;;;;;;;15.57;8.33;;;15.80;99.90;;;;;;5075568;28;20052;-67
2023/10/01 07:12:24;;;;;;;20.43;8.70;;;15.80;99.90;;;;;;5075045;28;20093;-66
2023/10/01 07:14:53;;;;;;;17.53;8.50;;;15.80;99.90;;;;;;5075165;28;20071;-66
2023/10/01 07:17:24;;;;;;;19.47;8.93;;;15.80;99.90;;;;;;5074827;28;20134;-66
2023/10/01 07:20:02;;;;;;;16.63;7.70;;;15.80;99.90;;;;;;5075219;28;20064;-66
2023/10/01 07:22:32;;;;;;;18.67;7.67;;;15.80;99.90;;;;;;5075395;28;20052;-67
2023/10/01 07:25:01;;;;;;;17.70;8.13;;;15.90;99.90;;;;;;5075575;28;20141;-66
2023/10/01 07:27:27;;;;;;;16.97;7.80;;;15.90;99.90;;;;;;5074696;28;20051;-67
2023/10/01 07:29:54;;;;;;;19.17;8.20;;;15.90;99.90;;;;;;5074626;28;20127;-67
2023/10/01 07:32:22;;;;;;;15.80;8.10;;;16.00;99.90;;;;;;5074903;28;20124;-67
2023/10/01 07:34:55;;;;;;;18.93;8.57;;;16.00;99.90;;;;;;5074568;28;20052;-67
2023/10/01 07:37:26;;;;;;;13.27;7.27;;;16.10;99.90;;;;;;5075085;28;20044;-67
2023/10/01 07:39:55;;;;;;;19.63;8.13;;;16.10;99.90;;;;;;5075014;28;20102;-67
2023/10/01 07:42:25;;;;;;;23.10;8.90;;;16.10;99.90;;;;;;5074630;28;20102;-67
2023/10/01 07:44:56;;;;;;;17.93;8.47;;;16.10;99.90;;;;;;5074961;28;20102;-66
2023/10/01 07:47:28;;;;;;;17.87;7.77;;;16.20;99.90;;;;;;5074377;28;20041;-66
2023/10/01 07:50:03;;;;;;;16.60;8.27;;;16.20;99.90;;;;;;5074585;28;20110;-66
2023/10/01 07:52:29;;;;;;;;;;;16.20;99.90;;;;;;5074662;28;20133;-66
2023/10/01 07:54:57;;;;;;;19.87;8.40;;;16.20;99.90;;;;;;5074720;28;19970;-66
2023/10/01 07:57:27;;;;;;;19.43;8.17;;;16.20;99.90;;;;;;5074930;28;20423;-67
2023/10/01 08:00:00;;;;;;;15.33;8.07;;;16.20;99.90;;;;;;5074127;28;20048;-67
2023/10/01 08:02:28;;;;;;;16.00;8.00;;;16.10;99.90;;;;;;5074031;28;20165;-67
2023/10/01 08:04:57;;;;;;;17.63;8.40;;;16.20;99.90;;;;;;5073991;28;20101;-66
2023/10/01 08:07:45;;;;;;;20.20;9.13;;;16.20;99.90;;;;;;5073874;28;20048;-66
2023/10/01 08:10:16;;;;;;;17.37;8.77;;;16.20;99.90;;;;;;5073530;28;20056;-67
2023/10/01 08:13:28;;;;;;;22.00;8.37;;;16.30;99.90;;;;;;5074752;28;20048;-67
2023/10/01 08:15:31;;;;;;;16.00;7.57;;;16.40;99.90;;;;;;5069535;28;20049;-67
2023/10/01 08:20:59;;;;;;;20.13;9.70;;;16.50;99.90;;;;;;5073518;28;20060;-67
2023/10/01 08:23:33;;;;;;;17.53;8.23;;;16.60;99.90;;;;;;5074577;28;20415;-67
2023/10/01 08:28:57;;;;;;;19.43;8.07;;;16.80;99.90;;;;;;5075875;28;20131;-67
2023/10/01 08:34:28;;;;;;;20.38;8.32;;;17.00;99.90;;;;;;5034396;28;20057;-67
2023/10/01 08:37:06;;;;;;;18.87;7.63;;;17.20;99.90;;;;;;5068880;28;20048;-67
2023/10/01 08:39:47;;;;;;;21.70;8.97;;;17.30;99.90;;;;;;5073627;28;20088;-67
2023/10/01 08:42:16;;;;;;;17.47;7.43;;;17.40;99.90;;;;;;5074421;28;20102;-67
2023/10/01 08:44:51;;;;;;;16.67;8.43;;;17.50;99.90;;;;;;5074103;28;20075;-67
2023/10/01 08:47:39;;;;;;;17.93;7.80;;;17.60;99.90;;;;;;5073365;28;20538;-68
2023/10/01 08:52:56;;;;;;;16.73;8.37;;;17.90;99.90;;;;;;5074677;28;20123;-67
2023/10/01 08:56:04;;;;;;;18.50;8.73;;;17.90;99.90;;;;;;5072218;28;20098;-68
2023/10/01 09:00:48;;;;;;;18.07;8.60;;;18.10;99.90;;;;;;5072190;28;20534;-67
2023/10/01 09:03:29;;;;;;;19.57;8.33;;;18.10;99.90;;;;;;5072947;28;20542;-67
2023/10/01 09:06:08;;;;;;;20.30;8.90;;;18.20;99.90;;;;;;5073352;28;20097;-67
2023/10/01 09:08:42;;;;;;;19.13;8.20;;;18.30;99.90;;;;;;5074112;28;20392;-73
2023/10/01 09:11:15;;;;;;;13.97;7.60;;;18.40;99.90;;;;;;5074088;28;20057;-68
2023/10/01 09:14:14;;;;;;;20.37;9.13;;;18.40;99.90;;;;;;5073274;28;20084;-68
2023/10/01 09:16:42;;;;;;;19.80;8.80;;;18.50;99.90;;;;;;5072571;28;20088;-67
2023/10/01 09:21:55;;;;;;;20.53;8.57;;;18.60;99.90;;;;;;5072836;28;20186;-68
2023/10/01 09:27:11;;;;;;;17.87;8.60;;;18.80;99.90;;;;;;5073052;28;20048;-69
2023/10/01 09:29:44;;;;;;;17.83;8.53;;;18.90;99.90;;;;;;5073010;28;20040;-67
2023/10/01 09:32:11;;;;;;;17.93;8.77;;;18.90;99.90;;;;;;5075787;28;20368;-69
2023/10/01 09:34:46;;;;;;;20.10;9.20;;;18.90;99.90;;;;;;5076818;28;20067;-67
2023/10/01 09:37:33;;;;;;;15.27;8.20;;;18.90;99.90;;;;;;5076272;28;20088;-66
2023/10/01 09:40:04;;;;;;;18.50;9.50;;;18.90;99.90;;;;;;5076367;28;20400;-66
2023/10/01 09:42:44;;;;;;;19.37;8.67;;;18.90;99.90;;;;;;5076615;28;20591;-67
2023/10/01 09:45:26;;;;;;;21.73;9.57;;;18.80;99.90;;;;;;5076432;28;20477;-67
2023/10/01 09:48:04;;;;;;;19.47;8.70;;;18.80;99.90;;;;;;5076639;28;20127;-67
2023/10/01 09:50:39;;;;;;;24.87;9.80;;;18.70;99.90;;;;;;5076825;28;20044;-67
2023/10/01 09:53:12;;;;;;;21.70;8.27;;;18.70;99.90;;;;;;5076658;28;20439;-67
2023/10/01 09:55:47;;;;;;;17.80;8.67;;;18.70;99.90;;;;;;5076367;28;20040;-68
2023/10/01 09:58:24;;;;;;;20.87;8.60;;;18.70;99.90;;;;;;5074852;28;20083;-68
2023/10/01 10:00:54;;;;;;;18.83;9.00;;;18.70;99.90;;;;;;5076375;28;20048;-67
2023/10/01 10:03:20;;;;;;;18.10;8.07;;;18.70;99.90;;;;;;5076333;28;20124;-68
2023/10/01 10:05:47;;;;;;;18.70;9.20;;;18.80;99.90;;;;;;5076187;28;20048;-68
2023/10/01 10:08:20;;;;;;;18.90;8.87;;;18.90;99.90;;;;;;5076956;28;20393;-65
2023/10/01 10:10:52;;;;;;;17.63;8.13;;;18.90;99.90;;;;;;5076682;28;20041;-65
2023/10/01 10:13:45;;;;;;;20.40;8.73;;;19.00;99.90;;;;;;5076657;28;20383;-65
2023/10/01 10:16:31;;;;;;;19.87;8.27;;;19.20;99.90;;;;;;5076836;28;20049;-65
2023/10/01 10:19:13;;;;;;;21.13;8.83;;;19.30;99.90;;;;;;5060115;28;20057;-67
2023/10/01 10:24:45;;;;;;;18.30;8.53;;;19.50;99.90;;;;;;5075446;28;20354;-68
2023/10/01 10:27:33;;;;;;;18.63;9.00;;;19.50;99.90;;;;;;5076472;28;20045;-67
2023/10/01 10:30:05;;;;;;;21.37;10.23;;;19.60;99.90;;;;;;5075561;28;20058;-68
2023/10/01 10:32:33;;;;;;;19.90;9.27;;;19.60;99.90;;;;;;5075598;28;20477;-69
2023/10/01 10:35:04;;;;;;;18.67;9.63;;;19.70;99.90;;;;;;5076318;28;20044;-68
2023/10/01 10:37:36;;;;;;;19.53;8.67;;;19.70;99.90;;;;;;5075643;28;20497;-66
2023/10/01 10:42:40;;;;;;;20.70;9.43;;;19.70;99.90;;;;;;5074029;28;20049;-65
2023/10/01 10:45:27;;;;;;;20.00;9.10;;;19.80;99.90;;;;;;5074948;28;20557;-66
2023/10/01 10:48:04;;;;;;;21.40;9.63;;;19.80;99.90;;;;;;5075821;28;20500;-66
2023/10/01 10:51:18;;;;;;;20.37;9.13;;;19.80;99.90;;;;;;5074205;28;20154;-65
2023/10/01 10:53:44;;;;;;;21.33;9.80;;;19.80;99.90;;;;;;5075225;28;20052;-66
2023/10/01 10:56:13;;;;;;;21.63;9.87;;;19.80;99.90;;;;;;5075776;28;20362;-66
2023/10/01 10:59:04;;;;;;;22.00;9.67;;;19.90;99.90;;;;;;5075243;28;20048;-66
2023/10/01 11:01:46;;;;;;;20.33;9.83;;;19.90;99.90;;;;;;5075144;28;20051;-66
2023/10/01 11:04:16;;;;;;;21.13;8.90;;;19.90;99.90;;;;;;5075468;28;20080;-66
2023/10/01 11:06:43;;;;;;;18.03;9.70;;;20.00;99.90;;;;;;5075922;28;20090;-66
2023/10/01 11:09:22;;;;;;;21.40;10.37;;;20.00;99.90;;;;;;5073972;28;20542;-66
2023/10/01 11:11:49;;;;;;;21.17;9.73;;;20.00;99.90;;;;;;5075491;28;20078;-65
2023/10/01 11:14:18;;;;;;;21.33;10.57;;;20.00;99.90;;;;;;5074844;28;20121;-65
2023/10/01 11:16:46;;;;;;;20.40;10.07;;;20.00;99.90;;;;;;5074310;28;20499;-69
2023/10/01 11:19:13;;;;;;;17.77;9.00;;;20.00;99.90;;;;;;5074690;28;20415;-68
2023/10/01 11:21:56;;;;;;;18.83;9.17;;;20.00;99.90;;;;;;5074753;28;20056;-66
2023/10/01 11:24:30;;;;;;;17.87;8.60;;;20.00;99.90;;;;;;5074856;28;20542;-66
2023/10/01 11:27:19;;;;;;;19.95;9.27;;;20.00;99.90;;;;;;5075625;28;20052;-66
2023/10/01 11:30:17;;;;;;;18.80;9.07;;;20.10;99.90;;;;;;5074641;28;20056;-66
2023/10/01 11:36:07;;;;;;;20.00;9.63;;;20.20;99.90;;;;;;5075020;28;20391;-66
2023/10/01 11:38:33;;;;;;;17.63;9.17;;;20.30;99.90;;;;;;5073383;28;20086;-67
2023/10/01 11:41:07;;;;;;;21.70;10.07;;;20.40;99.90;;;;;;5074462;28;20117;-66
2023/10/01 11:44:00;;;;;;;18.80;9.07;;;20.40;99.90;;;;;;5075005;28;20049;-67
2023/10/01 11:49:34;;;;;;;19.23;9.23;;;20.50;99.90;;;;;;5075223;28;20086;-66
2023/10/01 11:52:21;;;;;;;18.73;9.53;;;20.50;99.90;;;;;;5074231;28;20052;-66
2023/10/01 11:54:53;;;;;;;22.10;9.17;;;20.60;99.90;;;;;;5073492;28;20063;-66
2023/10/01 11:57:23;;;;;;;18.03;9.30;;;20.60;99.90;;;;;;5074122;28;20086;-66
2023/10/01 11:59:56;;;;;;;20.07;10.00;;;20.60;99.90;;;;;;5074721;28;20088;-67
2023/10/01 12:02:32;;;;;;;17.40;9.37;;;20.60;99.90;;;;;;5073665;28;20423;-68
2023/10/01 12:05:07;;;;;;;20.63;10.30;;;20.60;99.90;;;;;;5074109;28;20040;-68
2023/10/01 12:07:43;;;;;;;20.17;8.97;;;20.60;99.90;;;;;;5074837;28;20443;-69
2023/10/01 12:10:31;;;;;;;22.97;10.57;;;20.60;99.90;;;;;;5073998;28;20052;-67
2023/10/01 12:12:56;;;;;;;20.50;10.27;;;20.60;99.90;;;;;;5074623;28;20106;-69
2023/10/01 12:15:34;;;;;;;17.00;8.97;;;20.70;99.90;;;;;;5072685;28;20115;-69
2023/10/01 12:18:08;;;;;;;17.80;9.83;;;20.70;99.90;;;;;;5073937;28;20048;-67
2023/10/01 12:20:39;;;;;;;20.17;10.30;;;20.70;99.90;;;;;;5074163;28;20106;-69
2023/10/01 12:23:12;;;;;;;24.00;11.90;;;20.80;99.90;;;;;;5074527;28;20456;-74
2023/10/01 12:25:50;;;;;;;19.53;10.30;;;20.80;99.90;;;;;;5073457;28;20366;-68
2023/10/01 12:28:29;;;;;;;22.67;11.13;;;20.90;99.90;;;;;;5074239;28;20048;-69
2023/10/01 12:30:57;;;;;;;19.57;10.50;;;20.90;99.90;;;;;;5073781;28;20056;-69
2023/10/01 12:33:40;;;;;;;21.37;9.30;;;21.00;99.90;;;;;;5073687;28;20102;-68
2023/10/01 12:36:31;;;;;;;22.60;10.50;;;21.00;99.90;;;;;;5073820;28;20436;-68
2023/10/01 12:44:30;;;;;;;21.13;10.85;;;21.20;99.90;;;;;;5073555;28;20063;-68
2023/10/01 12:47:02;;;;;;;20.47;11.40;;;21.20;99.90;;;;;;5074038;28;20069;-67
2023/10/01 12:49:32;;;;;;;20.40;11.40;;;21.20;99.90;;;;;;5073292;28;20124;-71
2023/10/01 12:51:59;;;;;;;23.10;11.90;;;21.20;99.90;;;;;;5073979;28;20049;-68
2023/10/01 12:54:25;;;;;;;22.73;11.23;;;21.20;99.90;;;;;;5073952;28;20074;-68
2023/10/01 12:57:09;;;;;;;21.90;11.10;;;21.20;99.90;;;;;;5073095;28;20040;-68
2023/10/01 12:59:40;;;;;;;19.10;10.40;;;21.20;99.90;;;;;;5073215;28;20052;-68
2023/10/01 13:02:28;;;;;;;24.17;11.50;;;21.30;99.90;;;;;;5073957;28;20045;-69
2023/10/01 13:07:40;;;;;;;20.13;11.90;;;21.30;99.90;;;;;;5076681;28;20048;-69
2023/10/01 13:10:07;;;;;;;22.97;10.87;;;21.40;99.90;;;;;;5077320;28;20052;-68
2023/10/01 13:12:39;;;;;;;21.17;10.17;;;21.50;99.90;;;;;;5077175;28;20044;-68
2023/10/01 13:15:17;;;;;;;22.60;10.97;;;21.60;99.90;;;;;;5077382;28;20394;-68
2023/10/01 13:17:43;;;;;;;21.30;10.70;;;21.50;99.90;;;;;;5077154;28;20052;-68
2023/10/01 13:20:22;;;;;;;20.40;11.23;;;21.50;99.90;;;;;;5076866;28;20110;-70
2023/10/01 13:22:51;;;;;;;19.33;11.37;;;21.50;99.90;;;;;;5076508;28;20603;-67
2023/10/01 13:25:23;;;;;;;24.87;12.03;;;21.40;99.90;;;;;;5077043;28;20049;-67
2023/10/01 13:28:17;;;;;;;21.10;10.87;;;21.40;99.90;;;;;;5077065;28;20052;-67
2023/10/01 13:33:25;;;;;;;21.97;10.03;;;21.40;99.90;;;;;;5076953;28;20052;-68
2023/10/01 13:35:58;;;;;;;19.87;10.53;;;21.40;99.90;;;;;;5076725;28;20162;-67
2023/10/01 13:38:37;;;;;;;17.63;10.47;;;21.40;99.90;;;;;;5076880;28;20044;-67
2023/10/01 14:11:06;;;;;;;21.83;11.20;;;21.30;99.90;;;;;;5076313;28;20139;-71
2023/10/01 14:13:41;;;;;;;25.53;12.20;;;21.20;99.90;;;;;;5076720;28;20375;-69
2023/10/01 14:16:23;;;;;;;22.20;11.90;;;21.20;99.90;;;;;;5076049;28;20040;-70
2023/10/01 14:18:53;;;;;;;23.87;12.00;;;21.20;99.90;;;;;;5075337;28;20156;-69
2023/10/01 14:21:27;;;;;;;21.17;11.23;;;21.10;99.90;;;;;;5076081;28;20053;-67
2023/10/01 14:23:57;;;;;;;22.52;11.20;;;21.00;99.90;;;;;;5076470;28;20049;-67